Time;durP1;ratioP1;P1;durP2;ratioP2;P2;SDS_P1;SDS_P2;PMS_P1;PMS_P2;Temp;Humidity;BMP_temperature;BMP_pressure;BME280_temperature;BME280_humidity;BME280_pressure;Samples;Min_cycle;Max_cycle;Signal;HPM_P1;HPM_P2
2022/04/11 00:00:36;;;;;;;1.87;1.40;;;1.80;99.90;;;;;;5031619;28;20520;-46
2022/04/11 00:03:03;;;;;;;1.60;1.50;;;1.70;99.90;;;;;;5032140;28;20519;-45
2022/04/11 00:05:31;;;;;;;2.00;1.80;;;1.90;99.90;;;;;;5031603;28;20448;-45
2022/04/11 00:07:57;;;;;;;2.03;1.40;;;2.10;99.90;;;;;;5031826;28;20466;-48
2022/04/11 00:10:24;;;;;;;1.47;1.37;;;2.20;99.90;;;;;;5031583;28;20557;-45
2022/04/11 00:12:51;;;;;;;1.63;1.27;;;2.50;99.90;;;;;;5032282;28;20470;-50
2022/04/11 00:15:18;;;;;;;1.27;1.00;;;2.50;99.90;;;;;;5031865;28;20852;-48
2022/04/11 00:17:46;;;;;;;1.13;0.97;;;2.50;99.90;;;;;;5032030;28;20443;-47
2022/04/11 00:20:13;;;;;;;1.73;1.20;;;2.60;99.90;;;;;;5031477;28;20520;-45
2022/04/11 00:22:40;;;;;;;1.10;1.00;;;2.60;99.90;;;;;;5031555;28;20510;-45
2022/04/11 00:25:08;;;;;;;1.40;1.00;;;2.20;99.90;;;;;;5031553;28;20478;-45
2022/04/11 00:27:35;;;;;;;1.60;1.30;;;2.00;99.90;;;;;;5031545;28;20446;-45
2022/04/11 00:30:02;;;;;;;1.57;1.10;;;2.00;99.90;;;;;;5030995;28;20466;-45
2022/04/11 00:32:29;;;;;;;1.20;1.07;;;2.20;99.90;;;;;;5031667;28;20959;-45
2022/04/11 00:34:58;;;;;;;1.20;1.10;;;2.30;99.90;;;;;;5031325;28;20538;-45
2022/04/11 00:37:24;;;;;;;1.77;1.17;;;2.30;99.90;;;;;;5031388;28;20975;-44
2022/04/11 00:39:51;;;;;;;1.20;1.07;;;2.40;99.90;;;;;;5031274;28;20462;-46
2022/04/11 00:42:18;;;;;;;1.40;1.07;;;2.50;99.90;;;;;;5031247;28;20796;-45
2022/04/11 00:44:45;;;;;;;1.20;1.10;;;2.00;99.90;;;;;;5031121;28;20477;-49
2022/04/11 00:47:12;;;;;;;1.80;1.23;;;2.10;99.90;;;;;;5031468;28;20525;-47
2022/04/11 00:49:39;;;;;;;3.83;1.67;;;2.00;99.90;;;;;;5031058;28;20502;-45
2022/04/11 00:52:08;;;;;;;2.63;1.27;;;1.70;99.90;;;;;;5030851;28;20444;-49
2022/04/11 00:54:35;;;;;;;1.50;1.30;;;1.30;99.90;;;;;;5031592;28;20489;-45
2022/04/11 00:57:03;;;;;;;1.47;0.90;;;1.50;99.90;;;;;;5031294;28;20450;-45
2022/04/11 00:59:30;;;;;;;2.07;1.40;;;1.80;99.90;;;;;;5095627;22;20477;-45
2022/04/11 01:01:57;;;;;;;1.70;1.60;;;2.00;99.90;;;;;;5071443;28;20432;-45
2022/04/11 01:04:27;;;;;;;1.73;1.63;;;2.10;99.90;;;;;;5070517;28;20568;-43
2022/04/11 01:06:55;;;;;;;1.60;1.37;;;2.20;99.90;;;;;;5071313;28;20477;-46
2022/04/11 01:09:24;;;;;;;2.00;1.50;;;2.20;99.90;;;;;;5070996;28;20457;-44
2022/04/11 01:11:51;;;;;;;1.50;1.20;;;2.20;99.90;;;;;;5071124;28;20476;-49
2022/04/11 01:14:18;;;;;;;1.50;1.40;;;2.20;99.90;;;;;;5070973;28;20472;-44
2022/04/11 01:16:49;;;;;;;1.20;1.10;;;2.20;99.90;;;;;;5070814;28;20530;-47
2022/04/11 01:19:16;;;;;;;1.40;1.30;;;2.20;99.90;;;;;;5070497;28;20474;-45
2022/04/11 01:21:44;;;;;;;1.67;1.40;;;2.20;99.90;;;;;;5071300;28;20475;-44
2022/04/11 01:24:11;;;;;;;3.10;1.20;;;2.30;99.90;;;;;;5071044;28;20541;-45
2022/04/11 01:26:38;;;;;;;1.73;1.10;;;2.20;99.90;;;;;;5070815;28;20529;-44
2022/04/11 01:29:05;;;;;;;1.50;1.40;;;2.20;99.90;;;;;;5070581;28;20987;-45
2022/04/11 01:31:32;;;;;;;1.37;1.27;;;2.20;99.90;;;;;;5070660;28;20794;-45
2022/04/11 01:34:00;;;;;;;1.83;1.60;;;2.20;99.90;;;;;;5070832;28;20528;-44
2022/04/11 01:36:27;;;;;;;1.73;1.30;;;2.30;99.90;;;;;;5070805;28;20489;-47
2022/04/11 01:38:55;;;;;;;1.10;1.00;;;2.30;99.90;;;;;;5070810;28;20526;-44
2022/04/11 01:41:22;;;;;;;2.67;1.20;;;2.30;99.90;;;;;;5071064;28;20552;-44
2022/04/11 01:43:49;;;;;;;1.30;1.20;;;1.80;99.90;;;;;;5074470;28;20514;-48
2022/04/11 01:46:16;;;;;;;1.63;1.43;;;1.70;99.90;;;;;;5074519;28;20444;-48
2022/04/11 01:48:43;;;;;;;1.43;1.33;;;1.80;99.90;;;;;;5074165;28;20527;-44
2022/04/11 01:51:12;;;;;;;1.40;1.23;;;2.00;99.90;;;;;;5074242;28;20492;-45
2022/04/11 01:53:39;;;;;;;1.90;1.60;;;2.00;99.90;;;;;;5073943;28;20448;-44
2022/04/11 01:56:07;;;;;;;1.20;1.10;;;2.00;99.90;;;;;;5074487;28;20527;-45
2022/04/11 01:58:34;;;;;;;2.30;1.43;;;2.10;99.90;;;;;;5073942;28;20539;-44
2022/04/11 02:01:01;;;;;;;1.30;1.20;;;2.00;99.90;;;;;;5073599;28;20502;-44
2022/04/11 02:03:28;;;;;;;2.77;1.53;;;2.10;99.90;;;;;;5074014;28;20539;-46
2022/04/11 02:05:56;;;;;;;1.40;1.30;;;1.80;99.90;;;;;;5073729;28;20495;-44
2022/04/11 02:08:24;;;;;;;1.60;1.23;;;1.60;99.90;;;;;;5073587;28;20467;-45
2022/04/11 02:10:51;;;;;;;2.33;1.70;;;1.70;99.90;;;;;;5073435;28;20877;-44
2022/04/11 02:13:20;;;;;;;1.40;1.30;;;1.80;99.90;;;;;;5073957;28;21002;-44
2022/04/11 02:15:46;;;;;;;1.00;1.00;;;1.90;99.90;;;;;;5073952;28;20440;-45
2022/04/11 02:18:13;;;;;;;2.33;1.20;;;1.90;99.90;;;;;;5073916;28;20519;-45
2022/04/11 02:20:40;;;;;;;1.40;1.30;;;2.00;99.90;;;;;;5073838;28;20806;-44
2022/04/11 02:23:07;;;;;;;1.30;1.20;;;2.00;99.90;;;;;;5073831;28;20483;-49
2022/04/11 02:25:35;;;;;;;1.57;1.47;;;2.00;99.90;;;;;;5073824;28;20440;-44
2022/04/11 02:28:02;;;;;;;1.13;1.07;;;1.90;99.90;;;;;;5073620;28;20447;-49
2022/04/11 02:30:30;;;;;;;3.87;2.07;;;1.90;99.90;;;;;;5073541;28;20546;-44
2022/04/11 02:32:57;;;;;;;2.23;1.70;;;1.70;99.90;;;;;;5073494;28;20483;-45
2022/04/11 02:35:25;;;;;;;1.60;1.50;;;1.70;99.90;;;;;;5073404;28;20468;-44
2022/04/11 02:37:52;;;;;;;1.40;1.30;;;1.50;99.90;;;;;;5073498;28;20532;-44
2022/04/11 02:40:19;;;;;;;1.73;1.30;;;1.60;99.90;;;;;;5073546;28;20845;-45
2022/04/11 02:42:46;;;;;;;1.53;1.30;;;1.70;99.90;;;;;;5073378;28;20443;-44
2022/04/11 02:45:15;;;;;;;1.83;1.70;;;1.80;99.90;;;;;;5073267;28;20563;-46
2022/04/11 02:47:44;;;;;;;1.93;1.70;;;1.80;99.90;;;;;;5073163;28;20472;-44
2022/04/11 02:50:12;;;;;;;2.97;1.90;;;1.80;99.90;;;;;;5072796;28;20547;-48
2022/04/11 02:52:39;;;;;;;1.70;1.60;;;1.90;99.90;;;;;;5072651;28;20458;-45
2022/04/11 02:55:08;;;;;;;4.00;2.70;;;1.40;99.90;;;;;;5073130;28;20472;-45
2022/04/11 02:57:36;;;;;;;3.70;2.50;;;1.40;99.90;;;;;;5073011;28;20475;-45
2022/04/11 03:00:06;;;;;;;2.20;2.00;;;1.50;99.90;;;;;;5072732;28;20976;-44
2022/04/11 03:02:32;;;;;;;3.03;2.30;;;1.20;99.90;;;;;;5073376;28;20520;-44
2022/04/11 03:05:01;;;;;;;1.50;1.40;;;1.30;99.90;;;;;;5072768;28;20564;-44
2022/04/11 03:07:28;;;;;;;1.60;1.50;;;1.40;99.90;;;;;;5072918;28;20494;-44
2022/04/11 03:09:55;;;;;;;2.30;1.37;;;1.30;99.90;;;;;;5072562;28;20467;-45
2022/04/11 03:12:22;;;;;;;2.60;1.23;;;1.00;99.90;;;;;;5072769;28;20436;-44
2022/04/11 03:14:49;;;;;;;8.10;2.17;;;1.10;99.90;;;;;;5072749;28;20803;-45
2022/04/11 03:17:16;;;;;;;0.97;0.90;;;1.20;99.90;;;;;;5072920;28;20447;-44
2022/04/11 03:19:43;;;;;;;1.67;1.10;;;1.30;99.90;;;;;;5072324;28;20465;-44
2022/04/11 03:22:12;;;;;;;2.77;1.67;;;1.50;99.90;;;;;;5072632;28;20490;-45
2022/04/11 03:24:39;;;;;;;1.20;1.10;;;1.60;99.90;;;;;;5072590;28;20563;-44
2022/04/11 03:27:06;;;;;;;2.17;1.53;;;1.60;99.90;;;;;;5072364;28;20474;-44
2022/04/11 03:29:33;;;;;;;1.40;1.03;;;1.70;99.90;;;;;;5072360;28;20469;-44
2022/04/11 03:32:00;;;;;;;1.83;1.00;;;1.70;99.90;;;;;;5072341;28;20483;-45
2022/04/11 03:34:27;;;;;;;1.40;1.27;;;1.80;99.90;;;;;;5072252;28;20480;-44
2022/04/11 03:36:54;;;;;;;0.93;0.83;;;1.50;99.90;;;;;;5072133;28;20525;-46
2022/04/11 03:39:23;;;;;;;1.77;1.27;;;1.10;99.90;;;;;;5071955;28;20503;-45
2022/04/11 03:41:49;;;;;;;2.70;2.50;;;1.00;99.90;;;;;;5072446;28;20475;-45
2022/04/11 03:44:17;;;;;;;2.10;2.00;;;0.40;99.90;;;;;;5072561;28;21023;-47
2022/04/11 03:46:43;;;;;;;1.63;1.30;;;0.20;99.90;;;;;;5072180;28;20535;-45
2022/04/11 03:49:10;;;;;;;1.40;1.30;;;0.20;99.90;;;;;;5071813;28;20488;-44
2022/04/11 03:51:37;;;;;;;3.50;2.07;;;0.10;99.90;;;;;;5072184;28;20824;-45
2022/04/11 03:54:05;;;;;;;7.00;4.03;;;0.40;99.90;;;;;;5071603;28;20494;-45
2022/04/11 03:56:33;;;;;;;4.87;2.73;;;0.70;99.90;;;;;;5071771;28;20938;-45
2022/04/11 03:59:00;;;;;;;1.90;1.57;;;1.00;99.90;;;;;;5071743;28;20509;-42
2022/04/11 04:01:27;;;;;;;1.60;1.50;;;1.10;99.90;;;;;;5071791;28;20491;-44
2022/04/11 04:03:54;;;;;;;1.47;1.37;;;1.30;99.90;;;;;;5070873;28;20957;-45
2022/04/11 04:06:21;;;;;;;1.60;1.50;;;1.40;99.90;;;;;;5071431;28;20471;-46
2022/04/11 04:08:48;;;;;;;3.80;1.60;;;1.50;99.90;;;;;;5071485;28;20449;-44
2022/04/11 04:11:15;;;;;;;1.60;1.50;;;1.40;99.90;;;;;;5071441;28;20981;-44
2022/04/11 04:13:43;;;;;;;1.50;1.40;;;1.50;99.90;;;;;;5071578;28;21022;-45
2022/04/11 04:16:10;;;;;;;1.93;1.47;;;1.40;99.90;;;;;;5071681;28;20946;-45
2022/04/11 04:18:37;;;;;;;1.97;1.70;;;1.50;99.90;;;;;;5071322;28;20474;-46
2022/04/11 04:21:04;;;;;;;3.67;1.97;;;1.50;99.90;;;;;;5071466;28;20887;-44
2022/04/11 04:23:30;;;;;;;1.10;1.00;;;1.50;99.90;;;;;;5071523;28;20448;-45
2022/04/11 04:25:57;;;;;;;1.20;1.10;;;1.10;99.90;;;;;;5071496;28;20555;-44
2022/04/11 04:28:24;;;;;;;2.93;1.70;;;1.20;99.90;;;;;;5071340;28;20449;-42
2022/04/11 04:30:53;;;;;;;1.30;1.20;;;1.30;99.90;;;;;;5071213;28;20460;-48
2022/04/11 04:33:20;;;;;;;1.53;1.20;;;1.40;99.90;;;;;;5071363;28;20494;-46
2022/04/11 04:35:47;;;;;;;6.50;2.63;;;1.50;99.90;;;;;;5070677;28;20542;-44
2022/04/11 04:38:14;;;;;;;3.63;2.10;;;1.30;99.90;;;;;;5071256;28;20522;-48
2022/04/11 04:40:41;;;;;;;1.87;1.70;;;1.30;99.90;;;;;;5070987;28;21038;-45
2022/04/11 04:43:08;;;;;;;1.53;1.10;;;1.30;99.90;;;;;;5071596;28;20851;-44
2022/04/11 04:45:36;;;;;;;1.80;1.50;;;1.10;99.90;;;;;;5071135;28;20992;-45
2022/04/11 04:48:05;;;;;;;4.73;1.20;;;1.00;99.90;;;;;;5071154;28;20444;-45
2022/04/11 04:50:32;;;;;;;1.97;1.40;;;0.90;99.90;;;;;;5070887;28;20460;-44
2022/04/11 04:52:59;;;;;;;1.60;1.50;;;0.80;99.90;;;;;;5070635;28;20478;-45
2022/04/11 04:55:26;;;;;;;3.07;2.67;;;0.60;99.90;;;;;;5071126;28;20858;-44
2022/04/11 04:57:53;;;;;;;3.53;3.23;;;0.60;99.90;;;;;;5070917;28;20494;-45
2022/04/11 05:00:20;;;;;;;2.67;2.47;;;0.80;99.90;;;;;;5070694;28;20529;-44
2022/04/11 05:02:47;;;;;;;4.93;2.97;;;0.90;99.90;;;;;;5071068;28;20472;-45
2022/04/11 05:05:15;;;;;;;6.53;2.43;;;0.50;99.90;;;;;;5070934;28;20559;-45
2022/04/11 05:07:42;;;;;;;3.60;2.33;;;0.50;99.90;;;;;;5070555;28;20476;-44
2022/04/11 05:10:10;;;;;;;4.73;4.13;;;0.70;99.90;;;;;;5070525;28;20500;-44
2022/04/11 05:12:41;;;;;;;1.97;1.77;;;0.70;99.90;;;;;;5070723;28;20506;-44
2022/04/11 05:15:08;;;;;;;3.93;2.63;;;0.90;99.90;;;;;;5071197;28;20502;-44
2022/04/11 05:17:35;;;;;;;2.97;2.50;;;1.00;99.90;;;;;;5074817;28;20440;-45
2022/04/11 05:20:03;;;;;;;3.80;2.97;;;0.70;99.90;;;;;;5074484;28;20905;-47
2022/04/11 05:22:31;;;;;;;10.97;4.60;;;0.40;99.90;;;;;;5074946;28;20442;-44
2022/04/11 05:24:59;;;;;;;3.13;2.77;;;0.70;99.90;;;;;;5075295;28;20568;-44
2022/04/11 05:27:25;;;;;;;2.70;2.50;;;0.60;99.90;;;;;;5075167;28;20444;-45
2022/04/11 05:29:52;;;;;;;1.80;1.70;;;0.50;99.90;;;;;;5074496;28;20499;-45
2022/04/11 05:32:19;;;;;;;3.40;2.07;;;0.60;99.90;;;;;;5074697;28;20809;-45
2022/04/11 05:34:46;;;;;;;4.30;2.97;;;0.80;99.90;;;;;;5074099;28;20472;-46
2022/04/11 05:37:13;;;;;;;2.47;2.03;;;1.10;99.90;;;;;;5074713;28;20472;-45
2022/04/11 05:39:42;;;;;;;5.50;2.03;;;1.40;99.90;;;;;;5074393;28;20973;-45
2022/04/11 05:42:09;;;;;;;2.90;2.60;;;1.60;99.90;;;;;;5074244;28;20495;-45
2022/04/11 05:44:36;;;;;;;2.63;2.30;;;1.70;99.90;;;;;;5074420;28;20573;-47
2022/04/11 05:47:03;;;;;;;6.23;3.53;;;1.60;99.90;;;;;;5074102;28;20490;-44
2022/04/11 05:49:30;;;;;;;12.43;4.40;;;1.70;99.90;;;;;;5074031;28;20457;-46
2022/04/11 05:51:57;;;;;;;3.30;2.70;;;1.80;99.90;;;;;;5074062;28;20485;-45
2022/04/11 05:54:24;;;;;;;4.17;2.77;;;1.80;99.90;;;;;;5074539;28;20493;-45
2022/04/11 05:56:55;;;;;;;4.30;2.37;;;1.80;99.90;;;;;;5074140;28;20483;-47
2022/04/11 05:59:22;;;;;;;2.30;2.00;;;1.90;99.90;;;;;;5073965;28;20559;-45
2022/04/11 06:01:49;;;;;;;6.10;2.70;;;1.90;99.90;;;;;;5074189;28;20475;-48
2022/04/11 06:04:16;;;;;;;3.70;2.87;;;2.00;99.90;;;;;;5074101;28;20515;-45
2022/04/11 06:06:43;;;;;;;3.17;2.67;;;2.00;99.90;;;;;;5073891;28;20440;-45
2022/04/11 06:09:10;;;;;;;3.33;3.03;;;2.10;99.90;;;;;;5073802;28;20440;-47
2022/04/11 06:11:36;;;;;;;5.23;2.53;;;2.10;99.90;;;;;;5073713;28;20471;-45
2022/04/11 06:14:05;;;;;;;3.73;3.23;;;2.10;99.90;;;;;;5073943;28;20445;-44
2022/04/11 06:16:32;;;;;;;3.90;3.43;;;2.10;99.90;;;;;;5074064;28;20436;-46
2022/04/11 06:18:59;;;;;;;5.33;3.00;;;2.10;99.90;;;;;;5073752;28;20498;-44
2022/04/11 06:21:26;;;;;;;7.47;3.53;;;2.20;99.90;;;;;;5073920;28;20460;-49
2022/04/11 06:23:53;;;;;;;7.30;3.70;;;2.20;99.90;;;;;;5073931;28;20487;-44
2022/04/11 06:26:21;;;;;;;9.20;7.10;;;2.20;99.90;;;;;;5073618;28;20533;-44
2022/04/11 06:28:48;;;;;;;6.10;5.50;;;2.10;99.90;;;;;;5072837;28;20518;-42
2022/04/11 06:31:16;;;;;;;5.30;4.43;;;2.10;99.90;;;;;;5073158;28;20457;-44
2022/04/11 06:33:43;;;;;;;7.47;6.67;;;2.10;99.90;;;;;;5073715;28;20501;-44
2022/04/11 06:36:10;;;;;;;7.10;5.70;;;2.00;99.90;;;;;;5073249;28;20544;-44
2022/04/11 06:38:37;;;;;;;14.03;8.40;;;1.90;99.90;;;;;;5073301;28;20445;-48
2022/04/11 06:41:04;;;;;;;9.83;8.80;;;1.90;99.90;;;;;;5073480;28;20499;-44
2022/04/11 06:43:31;;;;;;;14.63;8.03;;;1.90;99.90;;;;;;5073296;28;20524;-44
2022/04/11 06:45:58;;;;;;;9.60;7.87;;;1.90;99.90;;;;;;5073300;28;20485;-45
2022/04/11 06:48:26;;;;;;;7.53;6.83;;;2.00;99.90;;;;;;5073246;28;20436;-44
2022/04/11 06:50:54;;;;;;;14.87;10.83;;;1.90;99.90;;;;;;5072735;28;20540;-44
2022/04/11 06:53:20;;;;;;;21.40;11.30;;;2.00;99.90;;;;;;5072996;28;21049;-44
2022/04/11 06:55:48;;;;;;;11.90;8.63;;;2.00;99.90;;;;;;5072868;28;20475;-44
2022/04/11 06:58:16;;;;;;;7.40;5.23;;;2.20;99.90;;;;;;5073063;28;20444;-45
2022/04/11 07:00:43;;;;;;;4.10;3.80;;;2.30;99.90;;;;;;5122667;22;21000;-50
2022/04/11 07:03:10;;;;;;;2.70;2.50;;;2.10;99.90;;;;;;5052834;28;20799;-45
2022/04/11 07:05:39;;;;;;;2.70;2.20;;;2.20;99.90;;;;;;5052739;28;21002;-46
2022/04/11 07:08:08;;;;;;;4.50;2.57;;;2.40;99.90;;;;;;5052418;28;20485;-46
2022/04/11 07:10:37;;;;;;;4.27;3.20;;;2.60;99.90;;;;;;5053119;28;20479;-48
2022/04/11 07:13:04;;;;;;;6.10;5.27;;;2.70;99.90;;;;;;5053065;28;20451;-46
2022/04/11 07:15:32;;;;;;;3.50;3.20;;;2.70;99.90;;;;;;5052915;28;20439;-45
2022/04/11 07:17:59;;;;;;;3.30;3.03;;;2.60;99.90;;;;;;5052749;28;20947;-45
2022/04/11 07:20:26;;;;;;;3.60;3.23;;;2.50;99.90;;;;;;5052450;28;20758;-49
2022/04/11 07:22:54;;;;;;;3.87;2.67;;;2.60;99.90;;;;;;5052826;28;20501;-46
2022/04/11 07:25:23;;;;;;;2.57;2.33;;;2.50;99.90;;;;;;5052646;28;20579;-46
2022/04/11 07:27:50;;;;;;;4.07;2.50;;;2.70;99.90;;;;;;5052908;28;20445;-45
2022/04/11 07:30:17;;;;;;;2.80;1.93;;;2.90;99.90;;;;;;5052274;28;20496;-46
2022/04/11 07:32:44;;;;;;;2.57;2.37;;;3.00;99.90;;;;;;5052564;28;20438;-45
2022/04/11 07:35:11;;;;;;;3.20;1.97;;;3.10;99.90;;;;;;5052210;28;20470;-49
2022/04/11 07:37:38;;;;;;;3.53;2.20;;;3.20;99.90;;;;;;5052465;28;20972;-45
2022/04/11 07:40:08;;;;;;;3.10;2.43;;;3.20;99.90;;;;;;5052346;28;20890;-45
2022/04/11 07:42:35;;;;;;;2.60;1.67;;;3.30;99.90;;;;;;5052416;28;20849;-45
2022/04/11 07:45:02;;;;;;;2.90;2.60;;;3.30;99.90;;;;;;5052233;28;20932;-45
2022/04/11 07:47:29;;;;;;;2.50;2.10;;;3.40;99.90;;;;;;5052225;28;20998;-45
2022/04/11 07:49:56;;;;;;;2.30;1.63;;;3.50;99.90;;;;;;5052009;28;20462;-49
2022/04/11 07:52:23;;;;;;;1.93;1.83;;;3.60;99.90;;;;;;5051724;28;20503;-46
2022/04/11 07:54:50;;;;;;;3.80;1.83;;;3.70;99.90;;;;;;5052362;28;20550;-45
2022/04/11 07:57:19;;;;;;;1.60;1.47;;;3.80;99.90;;;;;;5052055;28;20471;-45
2022/04/11 07:59:45;;;;;;;3.00;1.43;;;3.80;99.90;;;;;;5051624;28;20451;-46
2022/04/11 08:02:12;;;;;;;2.53;1.40;;;3.80;99.90;;;;;;5051904;28;20443;-49
2022/04/11 08:04:39;;;;;;;3.20;1.60;;;3.90;99.90;;;;;;5051646;28;20532;-46
2022/04/11 08:07:06;;;;;;;1.87;1.60;;;3.90;99.70;;;;;;5051457;28;20538;-45
2022/04/11 08:09:33;;;;;;;2.53;1.83;;;4.00;99.80;;;;;;5051509;28;20447;-45
2022/04/11 08:12:00;;;;;;;1.43;1.03;;;4.10;99.40;;;;;;5051782;28;20521;-46
2022/04/11 08:14:29;;;;;;;1.97;1.60;;;4.30;98.00;;;;;;5051473;28;20439;-49
2022/04/11 08:17:00;;;;;;;2.27;2.00;;;4.30;97.70;;;;;;5051381;28;20926;-45
2022/04/11 08:19:27;;;;;;;4.27;1.53;;;4.40;98.90;;;;;;5051686;28;20482;-47
2022/04/11 08:21:53;;;;;;;2.70;1.60;;;4.50;97.60;;;;;;5051726;28;20483;-50
2022/04/11 08:24:20;;;;;;;1.57;1.40;;;4.50;97.50;;;;;;5051690;28;20532;-46
2022/04/11 08:26:47;;;;;;;3.13;1.43;;;4.70;97.90;;;;;;5051422;28;20562;-45
2022/04/11 08:29:15;;;;;;;2.73;1.43;;;4.80;98.40;;;;;;5051033;28;20480;-47
2022/04/11 08:31:43;;;;;;;3.93;1.60;;;5.10;97.30;;;;;;5051470;28;20534;-45
2022/04/11 08:34:10;;;;;;;1.87;1.23;;;5.20;96.40;;;;;;5051316;28;20466;-46
2022/04/11 08:36:37;;;;;;;1.60;1.03;;;5.40;97.20;;;;;;5051465;28;20437;-46
2022/04/11 08:39:04;;;;;;;1.87;1.43;;;5.60;96.40;;;;;;5051158;28;20444;-46
2022/04/11 08:41:34;;;;;;;0.90;0.80;;;5.80;95.10;;;;;;5051178;28;20543;-47
2022/04/11 08:44:04;;;;;;;1.00;0.90;;;5.90;92.80;;;;;;5051136;28;20449;-47
2022/04/11 08:46:32;;;;;;;0.80;0.70;;;6.20;91.80;;;;;;5050949;28;20566;-49
2022/04/11 08:49:02;;;;;;;1.20;0.90;;;6.50;92.80;;;;;;5051176;28;20805;-50
2022/04/11 08:51:32;;;;;;;1.40;1.07;;;6.70;91.30;;;;;;5050446;28;21032;-50
2022/04/11 08:54:00;;;;;;;2.53;1.23;;;7.10;92.30;;;;;;5050961;28;20770;-45
2022/04/11 08:56:28;;;;;;;1.80;1.23;;;7.30;91.90;;;;;;5051108;28;20451;-45
2022/04/11 08:58:55;;;;;;;4.10;1.97;;;7.50;91.80;;;;;;5050807;28;20448;-45
2022/04/11 09:01:22;;;;;;;2.13;1.93;;;7.70;91.40;;;;;;5050996;28;20558;-49
2022/04/11 09:03:50;;;;;;;1.27;1.17;;;8.00;91.30;;;;;;5050792;28;20503;-46
2022/04/11 09:06:19;;;;;;;4.20;0.93;;;8.30;90.10;;;;;;5050409;28;20476;-48
2022/04/11 09:08:51;;;;;;;1.80;1.00;;;8.60;86.90;;;;;;5051101;28;20450;-46
2022/04/11 09:11:29;;;;;;;1.10;0.80;;;8.80;86.50;;;;;;5050728;28;20911;-46
2022/04/11 09:13:56;;;;;;;3.90;1.13;;;8.90;84.40;;;;;;5050952;28;20445;-46
2022/04/11 09:16:23;;;;;;;2.40;1.30;;;9.20;81.40;;;;;;5051231;28;20536;-46
2022/04/11 09:18:52;;;;;;;4.27;3.87;;;9.40;82.60;;;;;;5050687;28;20536;-46
2022/04/11 09:21:22;;;;;;;1.80;1.20;;;9.70;81.10;;;;;;5050718;28;20544;-46
2022/04/11 09:23:50;;;;;;;2.60;1.30;;;10.00;77.70;;;;;;5050889;28;20521;-46
2022/04/11 09:26:22;;;;;;;3.83;1.00;;;10.10;78.70;;;;;;5050583;28;20565;-46
2022/04/11 09:29:02;;;;;;;1.43;1.33;;;10.20;74.80;;;;;;5050430;28;20441;-46
2022/04/11 09:31:29;;;;;;;1.10;0.93;;;10.40;73.50;;;;;;5050472;28;20981;-46
2022/04/11 09:33:57;;;;;;;1.60;1.13;;;10.40;74.30;;;;;;5050356;28;20480;-47
2022/04/11 09:36:43;;;;;;;1.27;1.10;;;10.40;76.20;;;;;;5050602;28;20669;-44
2022/04/11 09:39:10;;;;;;;1.47;1.10;;;10.60;75.60;;;;;;5050278;28;20448;-43
2022/04/11 09:41:42;;;;;;;8.43;5.57;;;10.90;74.00;;;;;;5050399;28;20552;-45
2022/04/11 09:44:23;;;;;;;4.13;3.50;;;11.00;77.70;;;;;;5050795;28;20529;-45
2022/04/11 09:46:51;;;;;;;1.43;1.23;;;10.90;76.00;;;;;;5049790;28;20500;-44
2022/04/11 09:49:19;;;;;;;3.00;1.40;;;11.00;72.60;;;;;;5050263;28;20476;-44
2022/04/11 09:52:07;;;;;;;2.07;1.40;;;11.30;69.70;;;;;;5050295;28;20483;-44
2022/04/11 09:54:35;;;;;;;1.90;1.20;;;11.30;70.70;;;;;;5049889;28;20938;-44
2022/04/11 09:57:03;;;;;;;3.40;1.67;;;11.30;72.30;;;;;;5050039;28;20475;-47
2022/04/11 09:59:30;;;;;;;4.90;3.10;;;11.30;71.80;;;;;;5049750;28;20446;-46
2022/04/11 10:01:58;;;;;;;1.63;1.33;;;11.50;73.40;;;;;;5049869;28;20501;-43
2022/04/11 10:04:25;;;;;;;1.30;1.20;;;11.20;72.30;;;;;;5053194;28;20449;-45
2022/04/11 10:06:53;;;;;;;4.67;4.20;;;11.10;68.40;;;;;;5053037;28;20477;-47
2022/04/11 10:09:23;;;;;;;4.23;1.80;;;11.20;69.70;;;;;;5053792;28;20456;-48
2022/04/11 10:11:52;;;;;;;1.63;1.30;;;11.50;70.40;;;;;;5053433;28;20496;-45
2022/04/11 10:14:23;;;;;;;1.30;1.10;;;11.50;67.80;;;;;;5053598;28;20441;-47
2022/04/11 10:16:52;;;;;;;2.10;1.87;;;11.70;68.80;;;;;;5053814;28;20440;-44
2022/04/11 10:19:24;;;;;;;1.50;1.30;;;11.70;69.60;;;;;;5053227;28;20441;-44
2022/04/11 10:21:55;;;;;;;1.30;1.00;;;11.90;73.30;;;;;;5053679;28;20465;-45
2022/04/11 10:24:34;;;;;;;2.83;1.77;;;11.80;68.90;;;;;;5053609;28;20532;-44
2022/04/11 10:27:22;;;;;;;1.50;1.10;;;11.70;67.70;;;;;;5053254;28;20477;-44
2022/04/11 10:29:50;;;;;;;1.17;1.07;;;11.60;65.40;;;;;;5052826;28;21008;-44
2022/04/11 10:32:19;;;;;;;2.40;1.60;;;11.50;69.00;;;;;;5053231;28;20451;-44
2022/04/11 10:34:48;;;;;;;3.83;1.63;;;11.70;68.30;;;;;;5052675;28;20480;-46
2022/04/11 10:37:16;;;;;;;1.33;1.23;;;11.90;68.40;;;;;;5053141;28;20437;-44
2022/04/11 10:39:45;;;;;;;1.40;1.30;;;11.90;72.20;;;;;;5052617;28;20449;-44
2022/04/11 10:42:18;;;;;;;2.23;1.23;;;11.90;70.10;;;;;;5053018;28;20820;-45
2022/04/11 10:44:46;;;;;;;3.50;1.47;;;12.00;71.20;;;;;;5053438;28;20469;-47
2022/04/11 10:47:35;;;;;;;1.67;1.50;;;12.10;68.90;;;;;;5053160;28;20483;-44
2022/04/11 10:50:26;;;;;;;1.30;1.17;;;12.20;67.90;;;;;;5052901;28;20476;-44
2022/04/11 10:52:56;;;;;;;1.40;1.30;;;12.00;70.10;;;;;;5052458;28;20536;-48
2022/04/11 10:55:25;;;;;;;1.40;1.30;;;12.20;72.20;;;;;;5053162;28;20441;-45
2022/04/11 10:57:55;;;;;;;1.40;1.30;;;12.40;64.30;;;;;;5052567;28;20438;-44
2022/04/11 11:00:23;;;;;;;1.50;1.33;;;12.30;67.10;;;;;;5052568;28;20511;-43
2022/04/11 11:03:13;;;;;;;1.63;1.40;;;12.20;70.30;;;;;;5052634;28;20532;-44
2022/04/11 11:05:42;;;;;;;1.53;1.37;;;12.10;67.40;;;;;;5052261;28;20441;-48
2022/04/11 11:08:32;;;;;;;2.53;1.57;;;12.00;70.00;;;;;;5052069;28;20559;-44
2022/04/11 11:11:03;;;;;;;2.40;1.50;;;12.10;69.30;;;;;;5052131;28;20548;-44
2022/04/11 11:13:38;;;;;;;6.53;1.47;;;12.30;69.40;;;;;;5052070;28;20441;-44
2022/04/11 11:16:37;;;;;;;2.70;1.67;;;12.10;71.10;;;;;;5052428;28;20448;-44
2022/04/11 11:19:12;;;;;;;5.47;3.90;;;12.10;71.30;;;;;;5051868;28;20961;-44
2022/04/11 11:22:08;;;;;;;2.43;1.57;;;12.30;72.90;;;;;;5052131;28;20468;-44
2022/04/11 11:24:35;;;;;;;1.80;1.43;;;12.40;69.80;;;;;;5047762;28;20557;-44
2022/04/11 11:27:05;;;;;;;2.50;1.30;;;12.40;67.10;;;;;;5052017;28;20480;-44
2022/04/11 11:29:35;;;;;;;2.03;1.47;;;12.40;67.50;;;;;;5051779;28;20867;-44
2022/04/11 11:32:04;;;;;;;2.40;1.50;;;12.70;69.30;;;;;;5051092;28;20884;-46
2022/04/11 11:34:33;;;;;;;1.50;1.40;;;12.90;65.20;;;;;;5052201;28;20437;-45
2022/04/11 11:37:00;;;;;;;1.73;1.63;;;12.60;63.90;;;;;;5051994;28;20863;-47
2022/04/11 11:39:29;;;;;;;1.80;1.70;;;12.70;69.90;;;;;;5051662;28;20445;-44
2022/04/11 11:42:02;;;;;;;2.10;1.60;;;12.90;73.20;;;;;;5052160;28;20548;-47
2022/04/11 11:44:31;;;;;;;2.33;1.63;;;13.10;69.70;;;;;;5051861;28;20469;-44
2022/04/11 11:46:59;;;;;;;5.30;2.30;;;13.00;69.80;;;;;;5051839;28;20561;-44
2022/04/11 11:49:28;;;;;;;3.40;2.13;;;13.10;69.30;;;;;;5051136;28;20556;-47
2022/04/11 11:51:55;;;;;;;2.93;1.90;;;13.20;71.60;;;;;;5050640;28;20485;-43
2022/04/11 11:54:35;;;;;;;1.93;1.67;;;13.20;71.50;;;;;;5051459;28;20970;-44
2022/04/11 11:57:03;;;;;;;3.03;2.00;;;13.20;70.00;;;;;;5051402;28;20448;-44
2022/04/11 11:59:31;;;;;;;4.63;1.87;;;13.30;67.50;;;;;;5051285;28;20468;-45
2022/04/11 12:04:40;;;;;;;2.20;1.70;;;13.40;69.40;;;;;;5038443;28;20955;-45
2022/04/11 12:07:07;;;;;;;1.60;1.50;;;13.30;64.50;;;;;;5051055;28;20566;-42
2022/04/11 12:09:36;;;;;;;2.80;1.60;;;13.40;69.40;;;;;;5051428;28;20441;-47
2022/04/11 12:12:04;;;;;;;13.63;6.10;;;13.50;67.60;;;;;;5051498;28;20445;-44
2022/04/11 12:14:59;;;;;;;1.97;1.60;;;13.50;66.40;;;;;;5051407;28;20472;-44
2022/04/11 12:17:30;;;;;;;1.60;1.50;;;13.60;65.80;;;;;;5051821;28;20437;-44
2022/04/11 12:20:07;;;;;;;3.47;2.13;;;13.60;64.10;;;;;;5051225;28;20485;-44
2022/04/11 12:22:34;;;;;;;1.30;1.20;;;13.60;68.10;;;;;;5051568;28;20440;-46
2022/04/11 12:25:19;;;;;;;1.77;1.63;;;13.70;61.70;;;;;;5050498;28;20469;-48
2022/04/11 12:27:46;;;;;;;2.30;1.80;;;13.70;67.00;;;;;;5051161;28;20481;-44
2022/04/11 12:30:15;;;;;;;2.27;1.73;;;13.80;65.60;;;;;;5050736;28;20990;-44
2022/04/11 12:32:42;;;;;;;2.17;1.60;;;13.90;64.80;;;;;;5051207;28;20492;-46
2022/04/11 12:35:15;;;;;;;2.40;1.77;;;14.10;65.30;;;;;;5050745;28;20930;-44
2022/04/11 12:37:48;;;;;;;1.83;1.20;;;14.00;68.70;;;;;;5050986;28;20946;-44
2022/04/11 12:40:15;;;;;;;1.50;1.10;;;13.90;66.30;;;;;;5051605;28;20469;-44
2022/04/11 12:42:42;;;;;;;1.83;1.43;;;14.10;67.30;;;;;;5051034;28;20465;-44
2022/04/11 12:45:15;;;;;;;1.80;1.70;;;14.00;65.20;;;;;;5051222;28;20444;-44
2022/04/11 12:48:02;;;;;;;2.50;1.37;;;14.00;62.30;;;;;;5051027;28;20484;-49
2022/04/11 12:50:29;;;;;;;4.30;1.30;;;14.00;60.20;;;;;;5050367;28;20973;-47
2022/04/11 12:52:56;;;;;;;9.37;4.90;;;14.00;65.40;;;;;;5050567;28;20442;-49
2022/04/11 12:55:26;;;;;;;1238.77;215.03;;;14.10;60.70;;;;;;5050838;28;20491;-44
2022/04/11 12:58:04;;;;;;;1858.17;428.33;;;14.20;64.60;;;;;;5050599;28;20930;-45
2022/04/11 13:00:33;;;;;;;112.30;14.07;;;14.30;62.90;;;;;;5109746;22;20460;-49
2022/04/11 13:03:00;;;;;;;60.63;8.30;;;14.50;74.20;;;;;;5070933;28;20472;-45